Terminal Aerodrome Forecast
Issued by NWS

Home | Current Version | Previous Version | Text Only | Print | Product List | Glossary On
Versions: 1 2 3 4 5 6 7 8 9 10 11 12 13 14 15 16 17 18 19 20 21 22 23 24 25 26 27 28 29 30 31 32 33 34 35 36 37 38 39 40 41 42 43
000
FTAK31 PAFA 301128
TAFAUN
TAF
PAUN 301128Z 3012/3112 08006KT P6SM SCT035 OVC050
     FM310000 30010KT P6SM SCT035 BKN050
     FM310600 27012KT P6SM VCSH SCT025 BKN035 OVC050
     FM310900 24012KT 6SM -SHRA BR BKN025 OVC035=

USA.gov is the U.S. government's official web portal to all federal, state and local government web resources and services.